sensor_id;sensor_type;location;lat;lon;timestamp;temperature;humidity
72650;SHT31;61467;50.674;4.618;2023-10-19T00:02:05;16.04;81.27
72650;SHT31;61467;50.674;4.618;2023-10-19T00:04:31;16.17;81.30
72650;SHT31;61467;50.674;4.618;2023-10-19T00:07:01;15.97;82.01
72650;SHT31;61467;50.674;4.618;2023-10-19T00:09:30;16.07;81.55
72650;SHT31;61467;50.674;4.618;2023-10-19T00:12:03;16.07;81.74
72650;SHT31;61467;50.674;4.618;2023-10-19T00:14:30;16.07;82.01
72650;SHT31;61467;50.674;4.618;2023-10-19T00:16:58;16.17;81.91
72650;SHT31;61467;50.674;4.618;2023-10-19T00:19:32;16.24;81.59
72650;SHT31;61467;50.674;4.618;2023-10-19T00:22:05;16.11;81.84
72650;SHT31;61467;50.674;4.618;2023-10-19T00:24:35;16.08;82.17
72650;SHT31;61467;50.674;4.618;2023-10-19T00:27:02;15.97;82.26
72650;SHT31;61467;50.674;4.618;2023-10-19T00:29:35;16.10;81.98
72650;SHT31;61467;50.674;4.618;2023-10-19T00:32:05;16.01;81.36
72650;SHT31;61467;50.674;4.618;2023-10-19T00:34:39;16.11;80.99
72650;SHT31;61467;50.674;4.618;2023-10-19T00:37:08;16.12;80.68
72650;SHT31;61467;50.674;4.618;2023-10-19T00:39:36;15.98;80.77
72650;SHT31;61467;50.674;4.618;2023-10-19T00:42:09;16.07;80.13
72650;SHT31;61467;50.674;4.618;2023-10-19T00:44:36;16.08;79.69
72650;SHT31;61467;50.674;4.618;2023-10-19T00:47:08;16.10;79.93
72650;SHT31;61467;50.674;4.618;2023-10-19T00:49:38;16.03;80.18
72650;SHT31;61467;50.674;4.618;2023-10-19T00:52:08;15.93;80.16
72650;SHT31;61467;50.674;4.618;2023-10-19T00:54:39;16.20;79.64
72650;SHT31;61467;50.674;4.618;2023-10-19T00:57:17;16.03;80.19
72650;SHT31;61467;50.674;4.618;2023-10-19T00:59:48;16.05;80.03
72650;SHT31;61467;50.674;4.618;2023-10-19T01:02:19;15.87;80.45
72650;SHT31;61467;50.674;4.618;2023-10-19T01:04:55;16.05;80.08
72650;SHT31;61467;50.674;4.618;2023-10-19T01:07:27;15.86;80.72
72650;SHT31;61467;50.674;4.618;2023-10-19T01:09:55;15.90;80.71
72650;SHT31;61467;50.674;4.618;2023-10-19T01:12:22;16.11;80.33
72650;SHT31;61467;50.674;4.618;2023-10-19T01:15:06;16.10;79.86
72650;SHT31;61467;50.674;4.618;2023-10-19T01:17:38;15.98;80.39
72650;SHT31;61467;50.674;4.618;2023-10-19T01:20:07;15.90;80.38
72650;SHT31;61467;50.674;4.618;2023-10-19T01:22:50;15.91;80.45
72650;SHT31;61467;50.674;4.618;2023-10-19T01:25:19;15.90;80.67
72650;SHT31;61467;50.674;4.618;2023-10-19T01:27:59;15.97;80.58
72650;SHT31;61467;50.674;4.618;2023-10-19T01:30:32;15.97;80.33
72650;SHT31;61467;50.674;4.618;2023-10-19T01:33:00;16.04;80.39
72650;SHT31;61467;50.674;4.618;2023-10-19T01:35:28;15.97;80.50
72650;SHT31;61467;50.674;4.618;2023-10-19T01:38:17;16.07;80.55
72650;SHT31;61467;50.674;4.618;2023-10-19T01:40:44;16.01;80.71
72650;SHT31;61467;50.674;4.618;2023-10-19T01:43:14;16.03;80.82
72650;SHT31;61467;50.674;4.618;2023-10-19T01:45:46;15.97;81.23
72650;SHT31;61467;50.674;4.618;2023-10-19T01:48:13;16.01;80.72
72650;SHT31;61467;50.674;4.618;2023-10-19T01:50:40;15.86;81.28
72650;SHT31;61467;50.674;4.618;2023-10-19T01:53:08;15.83;81.66
72650;SHT31;61467;50.674;4.618;2023-10-19T01:55:42;15.81;81.39
72650;SHT31;61467;50.674;4.618;2023-10-19T01:58:09;15.97;80.86
72650;SHT31;61467;50.674;4.618;2023-10-19T02:00:35;15.89;81.44
72650;SHT31;61467;50.674;4.618;2023-10-19T02:03:07;15.81;81.49
72650;SHT31;61467;50.674;4.618;2023-10-19T02:05:34;15.77;82.10
72650;SHT31;61467;50.674;4.618;2023-10-19T02:08:07;15.84;81.56
72650;SHT31;61467;50.674;4.618;2023-10-19T02:10:34;15.89;81.59
72650;SHT31;61467;50.674;4.618;2023-10-19T02:13:08;15.77;81.77
72650;SHT31;61467;50.674;4.618;2023-10-19T02:15:36;15.76;81.83
72650;SHT31;61467;50.674;4.618;2023-10-19T02:18:02;15.86;81.44
72650;SHT31;61467;50.674;4.618;2023-10-19T02:20:30;15.73;82.04
72650;SHT31;61467;50.674;4.618;2023-10-19T02:22:57;15.81;81.81
72650;SHT31;61467;50.674;4.618;2023-10-19T02:25:29;15.71;81.53
72650;SHT31;61467;50.674;4.618;2023-10-19T02:27:59;15.66;81.92
72650;SHT31;61467;50.674;4.618;2023-10-19T02:30:27;15.74;81.75
72650;SHT31;61467;50.674;4.618;2023-10-19T02:32:54;15.63;82.17
72650;SHT31;61467;50.674;4.618;2023-10-19T02:35:20;15.56;82.20
72650;SHT31;61467;50.674;4.618;2023-10-19T02:37:47;15.66;81.91
72650;SHT31;61467;50.674;4.618;2023-10-19T02:40:13;15.64;81.94
72650;SHT31;61467;50.674;4.618;2023-10-19T02:42:45;15.54;82.02
72650;SHT31;61467;50.674;4.618;2023-10-19T02:45:14;15.56;82.05
72650;SHT31;61467;50.674;4.618;2023-10-19T02:47:43;15.57;81.88
72650;SHT31;61467;50.674;4.618;2023-10-19T02:50:11;15.59;81.69
72650;SHT31;61467;50.674;4.618;2023-10-19T02:52:39;15.47;82.11
72650;SHT31;61467;50.674;4.618;2023-10-19T02:55:08;15.50;82.04
72650;SHT31;61467;50.674;4.618;2023-10-19T02:57:35;15.46;81.95
72650;SHT31;61467;50.674;4.618;2023-10-19T03:00:05;15.40;82.21
72650;SHT31;61467;50.674;4.618;2023-10-19T03:02:34;15.38;81.85
72650;SHT31;61467;50.674;4.618;2023-10-19T03:05:04;15.38;82.06
72650;SHT31;61467;50.674;4.618;2023-10-19T03:07:38;15.39;82.01
72650;SHT31;61467;50.674;4.618;2023-10-19T03:10:07;15.56;81.52
72650;SHT31;61467;50.674;4.618;2023-10-19T03:12:32;15.38;82.13
72650;SHT31;61467;50.674;4.618;2023-10-19T03:15:01;15.28;82.23
72650;SHT31;61467;50.674;4.618;2023-10-19T03:17:27;15.44;81.63
72650;SHT31;61467;50.674;4.618;2023-10-19T03:19:55;15.44;81.86
72650;SHT31;61467;50.674;4.618;2023-10-19T03:22:23;15.40;81.92
72650;SHT31;61467;50.674;4.618;2023-10-19T03:24:50;15.49;81.38
72650;SHT31;61467;50.674;4.618;2023-10-19T03:27:25;15.36;82.37
72650;SHT31;61467;50.674;4.618;2023-10-19T03:29:52;15.49;82.19
72650;SHT31;61467;50.674;4.618;2023-10-19T03:32:20;15.35;82.20
72650;SHT31;61467;50.674;4.618;2023-10-19T03:34:47;15.32;82.31
72650;SHT31;61467;50.674;4.618;2023-10-19T03:37:15;15.39;82.04
72650;SHT31;61467;50.674;4.618;2023-10-19T03:39:46;15.49;81.76
72650;SHT31;61467;50.674;4.618;2023-10-19T03:42:13;15.56;82.01
72650;SHT31;61467;50.674;4.618;2023-10-19T03:44:40;15.50;82.10
72650;SHT31;61467;50.674;4.618;2023-10-19T03:47:17;15.42;82.23
72650;SHT31;61467;50.674;4.618;2023-10-19T03:49:47;15.53;81.99
72650;SHT31;61467;50.674;4.618;2023-10-19T03:52:14;15.43;82.60
72650;SHT31;61467;50.674;4.618;2023-10-19T03:54:49;15.42;82.36
72650;SHT31;61467;50.674;4.618;2023-10-19T03:57:18;15.49;82.10
72650;SHT31;61467;50.674;4.618;2023-10-19T03:59:50;15.57;82.51
72650;SHT31;61467;50.674;4.618;2023-10-19T04:02:21;15.66;81.84
72650;SHT31;61467;50.674;4.618;2023-10-19T04:04:50;15.60;81.97
72650;SHT31;61467;50.674;4.618;2023-10-19T04:07:18;15.50;82.35
72650;SHT31;61467;50.674;4.618;2023-10-19T04:09:49;15.56;82.29
72650;SHT31;61467;50.674;4.618;2023-10-19T04:12:35;15.62;82.04
72650;SHT31;61467;50.674;4.618;2023-10-19T04:15:04;15.64;81.93
72650;SHT31;61467;50.674;4.618;2023-10-19T04:17:37;15.66;82.02
72650;SHT31;61467;50.674;4.618;2023-10-19T04:20:06;15.66;81.70
72650;SHT31;61467;50.674;4.618;2023-10-19T04:22:51;15.70;81.82
72650;SHT31;61467;50.674;4.618;2023-10-19T04:25:20;15.63;82.22
72650;SHT31;61467;50.674;4.618;2023-10-19T04:27:51;15.70;81.88
72650;SHT31;61467;50.674;4.618;2023-10-19T04:30:18;15.87;81.37
72650;SHT31;61467;50.674;4.618;2023-10-19T04:32:48;15.71;81.54
72650;SHT31;61467;50.674;4.618;2023-10-19T04:35:16;15.64;82.24
72650;SHT31;61467;50.674;4.618;2023-10-19T04:37:48;15.70;82.15
72650;SHT31;61467;50.674;4.618;2023-10-19T04:40:16;15.71;81.89
72650;SHT31;61467;50.674;4.618;2023-10-19T04:42:45;15.67;81.91
72650;SHT31;61467;50.674;4.618;2023-10-19T04:45:12;15.79;81.67
72650;SHT31;61467;50.674;4.618;2023-10-19T04:47:40;15.74;81.79
72650;SHT31;61467;50.674;4.618;2023-10-19T04:50:08;15.77;81.88
72650;SHT31;61467;50.674;4.618;2023-10-19T04:52:36;15.70;81.82
72650;SHT31;61467;50.674;4.618;2023-10-19T04:55:04;15.59;82.86
72650;SHT31;61467;50.674;4.618;2023-10-19T04:57:31;15.70;82.15
72650;SHT31;61467;50.674;4.618;2023-10-19T04:59:59;15.66;82.20
72650;SHT31;61467;50.674;4.618;2023-10-19T05:02:26;15.59;82.28
72650;SHT31;61467;50.674;4.618;2023-10-19T05:04:52;15.64;82.15
72650;SHT31;61467;50.674;4.618;2023-10-19T05:07:19;15.73;82.16
72650;SHT31;61467;50.674;4.618;2023-10-19T05:09:46;15.71;82.36
72650;SHT31;61467;50.674;4.618;2023-10-19T05:12:14;15.71;82.74
72650;SHT31;61467;50.674;4.618;2023-10-19T05:14:42;15.60;82.69
72650;SHT31;61467;50.674;4.618;2023-10-19T05:17:10;15.66;82.30
72650;SHT31;61467;50.674;4.618;2023-10-19T05:19:38;15.73;82.37
72650;SHT31;61467;50.674;4.618;2023-10-19T05:22:07;15.62;82.67
72650;SHT31;61467;50.674;4.618;2023-10-19T05:24:36;15.60;82.92
72650;SHT31;61467;50.674;4.618;2023-10-19T05:27:03;15.64;82.68
72650;SHT31;61467;50.674;4.618;2023-10-19T05:29:31;15.83;82.07
72650;SHT31;61467;50.674;4.618;2023-10-19T05:31:58;15.76;82.16
72650;SHT31;61467;50.674;4.618;2023-10-19T05:34:27;15.91;81.82
72650;SHT31;61467;50.674;4.618;2023-10-19T05:36:54;15.94;81.68
72650;SHT31;61467;50.674;4.618;2023-10-19T05:39:24;15.89;81.75
72650;SHT31;61467;50.674;4.618;2023-10-19T05:41:54;15.76;82.37
72650;SHT31;61467;50.674;4.618;2023-10-19T05:44:21;15.86;81.99
72650;SHT31;61467;50.674;4.618;2023-10-19T05:46:50;15.83;82.00
72650;SHT31;61467;50.674;4.618;2023-10-19T05:49:17;15.81;82.18
72650;SHT31;61467;50.674;4.618;2023-10-19T05:51:48;15.87;81.78
72650;SHT31;61467;50.674;4.618;2023-10-19T05:54:15;15.90;81.54
72650;SHT31;61467;50.674;4.618;2023-10-19T05:56:42;15.90;81.44
72650;SHT31;61467;50.674;4.618;2023-10-19T05:59:09;15.97;81.29
72650;SHT31;61467;50.674;4.618;2023-10-19T06:01:38;15.97;81.43
72650;SHT31;61467;50.674;4.618;2023-10-19T06:04:05;15.84;81.75
72650;SHT31;61467;50.674;4.618;2023-10-19T06:06:32;15.89;81.65
72650;SHT31;61467;50.674;4.618;2023-10-19T06:09:00;15.93;81.51
72650;SHT31;61467;50.674;4.618;2023-10-19T06:11:30;15.80;81.75
72650;SHT31;61467;50.674;4.618;2023-10-19T06:13:58;15.87;81.70
72650;SHT31;61467;50.674;4.618;2023-10-19T06:16:26;15.84;81.86
72650;SHT31;61467;50.674;4.618;2023-10-19T06:18:54;15.84;82.27
72650;SHT31;61467;50.674;4.618;2023-10-19T06:21:21;15.83;82.00
72650;SHT31;61467;50.674;4.618;2023-10-19T06:23:49;15.90;81.61
72650;SHT31;61467;50.674;4.618;2023-10-19T06:26:19;15.81;82.20
72650;SHT31;61467;50.674;4.618;2023-10-19T06:28:48;15.81;81.72
72650;SHT31;61467;50.674;4.618;2023-10-19T06:31:16;15.83;81.73
72650;SHT31;61467;50.674;4.618;2023-10-19T06:33:44;15.84;81.89
72650;SHT31;61467;50.674;4.618;2023-10-19T06:36:11;15.90;81.64
72650;SHT31;61467;50.674;4.618;2023-10-19T06:38:38;15.93;81.47
72650;SHT31;61467;50.674;4.618;2023-10-19T06:41:11;15.93;81.61
72650;SHT31;61467;50.674;4.618;2023-10-19T06:43:40;15.91;81.75
72650;SHT31;61467;50.674;4.618;2023-10-19T06:46:08;15.80;81.76
72650;SHT31;61467;50.674;4.618;2023-10-19T06:48:37;15.70;82.23
72650;SHT31;61467;50.674;4.618;2023-10-19T06:51:04;15.81;81.87
72650;SHT31;61467;50.674;4.618;2023-10-19T06:53:31;15.69;82.29
72650;SHT31;61467;50.674;4.618;2023-10-19T06:55:59;15.71;82.28
72650;SHT31;61467;50.674;4.618;2023-10-19T06:58:26;15.73;82.16
72650;SHT31;61467;50.674;4.618;2023-10-19T07:00:54;15.64;82.34
72650;SHT31;61467;50.674;4.618;2023-10-19T07:03:30;15.74;81.98
72650;SHT31;61467;50.674;4.618;2023-10-19T07:05:57;15.90;81.56
72650;SHT31;61467;50.674;4.618;2023-10-19T07:08:25;15.89;81.71
72650;SHT31;61467;50.674;4.618;2023-10-19T07:10:52;15.84;81.92
72650;SHT31;61467;50.674;4.618;2023-10-19T07:13:21;15.81;82.12
72650;SHT31;61467;50.674;4.618;2023-10-19T07:15:48;15.76;82.10
72650;SHT31;61467;50.674;4.618;2023-10-19T07:18:17;15.90;81.77
72650;SHT31;61467;50.674;4.618;2023-10-19T07:20:44;15.86;82.05
72650;SHT31;61467;50.674;4.618;2023-10-19T07:23:14;15.81;81.91
72650;SHT31;61467;50.674;4.618;2023-10-19T07:25:46;15.79;82.00
72650;SHT31;61467;50.674;4.618;2023-10-19T07:28:18;15.87;82.01
72650;SHT31;61467;50.674;4.618;2023-10-19T07:30:45;15.84;82.24
72650;SHT31;61467;50.674;4.618;2023-10-19T07:33:13;15.86;82.20
72650;SHT31;61467;50.674;4.618;2023-10-19T07:35:45;15.86;82.13
72650;SHT31;61467;50.674;4.618;2023-10-19T07:38:13;16.00;81.70
72650;SHT31;61467;50.674;4.618;2023-10-19T07:40:40;15.87;82.10
72650;SHT31;61467;50.674;4.618;2023-10-19T07:43:07;16.03;81.87
72650;SHT31;61467;50.674;4.618;2023-10-19T07:45:35;15.91;82.38
72650;SHT31;61467;50.674;4.618;2023-10-19T07:48:02;16.05;81.60
72650;SHT31;61467;50.674;4.618;2023-10-19T07:50:32;15.93;82.13
72650;SHT31;61467;50.674;4.618;2023-10-19T07:53:02;16.07;81.63
72650;SHT31;61467;50.674;4.618;2023-10-19T07:55:29;16.05;81.84
72650;SHT31;61467;50.674;4.618;2023-10-19T07:57:57;16.12;81.40
72650;SHT31;61467;50.674;4.618;2023-10-19T08:00:29;16.08;81.70
72650;SHT31;61467;50.674;4.618;2023-10-19T08:02:56;16.20;81.31
72650;SHT31;61467;50.674;4.618;2023-10-19T08:05:23;16.10;81.55
72650;SHT31;61467;50.674;4.618;2023-10-19T08:07:51;16.24;81.11
72650;SHT31;61467;50.674;4.618;2023-10-19T08:10:20;16.17;81.43
72650;SHT31;61467;50.674;4.618;2023-10-19T08:12:48;16.20;81.22
72650;SHT31;61467;50.674;4.618;2023-10-19T08:15:16;16.14;81.70
72650;SHT31;61467;50.674;4.618;2023-10-19T08:17:45;16.15;81.37
72650;SHT31;61467;50.674;4.618;2023-10-19T08:20:14;16.20;81.13
72650;SHT31;61467;50.674;4.618;2023-10-19T08:22:48;16.31;81.14
72650;SHT31;61467;50.674;4.618;2023-10-19T08:25:15;16.12;80.99
72650;SHT31;61467;50.674;4.618;2023-10-19T08:27:44;16.21;81.39
72650;SHT31;61467;50.674;4.618;2023-10-19T08:30:15;16.28;81.15
72650;SHT31;61467;50.674;4.618;2023-10-19T08:32:43;16.48;80.26
72650;SHT31;61467;50.674;4.618;2023-10-19T08:35:13;16.51;80.64
72650;SHT31;61467;50.674;4.618;2023-10-19T08:37:42;16.32;81.06
72650;SHT31;61467;50.674;4.618;2023-10-19T08:40:12;16.38;80.64
72650;SHT31;61467;50.674;4.618;2023-10-19T08:42:40;16.49;80.50
72650;SHT31;61467;50.674;4.618;2023-10-19T08:45:10;16.52;80.35
72650;SHT31;61467;50.674;4.618;2023-10-19T08:47:41;16.49;80.68
72650;SHT31;61467;50.674;4.618;2023-10-19T08:50:13;16.52;80.47
72650;SHT31;61467;50.674;4.618;2023-10-19T08:52:41;16.55;80.85
72650;SHT31;61467;50.674;4.618;2023-10-19T08:55:09;16.63;80.36
72650;SHT31;61467;50.674;4.618;2023-10-19T08:57:39;16.65;80.26
72650;SHT31;61467;50.674;4.618;2023-10-19T09:00:07;16.56;80.15
72650;SHT31;61467;50.674;4.618;2023-10-19T09:02:36;16.61;80.82
72650;SHT31;61467;50.674;4.618;2023-10-19T09:05:07;16.65;80.32
72650;SHT31;61467;50.674;4.618;2023-10-19T09:07:35;16.62;80.15
72650;SHT31;61467;50.674;4.618;2023-10-19T09:10:07;16.66;80.32
72650;SHT31;61467;50.674;4.618;2023-10-19T09:12:40;16.71;79.71
72650;SHT31;61467;50.674;4.618;2023-10-19T09:15:22;16.69;79.64
72650;SHT31;61467;50.674;4.618;2023-10-19T09:17:53;16.63;79.78
72650;SHT31;61467;50.674;4.618;2023-10-19T09:20:20;16.66;79.91
72650;SHT31;61467;50.674;4.618;2023-10-19T09:22:53;16.73;79.78
72650;SHT31;61467;50.674;4.618;2023-10-19T09:25:20;16.84;79.37
72650;SHT31;61467;50.674;4.618;2023-10-19T09:27:48;16.93;79.11
72650;SHT31;61467;50.674;4.618;2023-10-19T09:30:15;16.90;79.33
72650;SHT31;61467;50.674;4.618;2023-10-19T09:32:46;16.94;79.58
72650;SHT31;61467;50.674;4.618;2023-10-19T09:35:15;16.94;79.08
72650;SHT31;61467;50.674;4.618;2023-10-19T09:37:42;17.03;79.21
72650;SHT31;61467;50.674;4.618;2023-10-19T09:40:10;16.96;79.47
72650;SHT31;61467;50.674;4.618;2023-10-19T09:42:40;17.10;78.80
72650;SHT31;61467;50.674;4.618;2023-10-19T09:45:12;17.10;78.20
72650;SHT31;61467;50.674;4.618;2023-10-19T09:47:47;17.17;78.37
72650;SHT31;61467;50.674;4.618;2023-10-19T09:50:17;17.21;78.26
72650;SHT31;61467;50.674;4.618;2023-10-19T09:52:44;17.30;77.90
72650;SHT31;61467;50.674;4.618;2023-10-19T09:55:14;17.31;78.11
72650;SHT31;61467;50.674;4.618;2023-10-19T09:57:50;17.30;78.11
72650;SHT31;61467;50.674;4.618;2023-10-19T10:00:18;17.37;77.82
72650;SHT31;61467;50.674;4.618;2023-10-19T10:02:49;17.27;77.97
72650;SHT31;61467;50.674;4.618;2023-10-19T10:05:45;17.47;77.55
72650;SHT31;61467;50.674;4.618;2023-10-19T10:08:32;17.41;77.81
72650;SHT31;61467;50.674;4.618;2023-10-19T10:11:13;17.50;77.48
72650;SHT31;61467;50.674;4.618;2023-10-19T10:13:42;17.61;77.48
72650;SHT31;61467;50.674;4.618;2023-10-19T10:16:13;17.51;77.26
72650;SHT31;61467;50.674;4.618;2023-10-19T10:18:41;17.55;77.30
72650;SHT31;61467;50.674;4.618;2023-10-19T10:21:13;17.61;77.03
72650;SHT31;61467;50.674;4.618;2023-10-19T10:23:41;17.74;76.62
72650;SHT31;61467;50.674;4.618;2023-10-19T10:26:14;17.62;76.82
72650;SHT31;61467;50.674;4.618;2023-10-19T10:28:41;17.62;76.89
72650;SHT31;61467;50.674;4.618;2023-10-19T10:31:13;17.60;76.95
72650;SHT31;61467;50.674;4.618;2023-10-19T10:33:41;17.71;76.85
72650;SHT31;61467;50.674;4.618;2023-10-19T10:36:12;17.70;76.80
72650;SHT31;61467;50.674;4.618;2023-10-19T10:38:39;17.62;77.37
72650;SHT31;61467;50.674;4.618;2023-10-19T10:41:07;17.68;76.93
72650;SHT31;61467;50.674;4.618;2023-10-19T10:43:50;17.65;77.19
72650;SHT31;61467;50.674;4.618;2023-10-19T10:46:18;17.71;77.26
72650;SHT31;61467;50.674;4.618;2023-10-19T10:48:45;17.75;76.94
72650;SHT31;61467;50.674;4.618;2023-10-19T10:51:22;17.60;77.33
72650;SHT31;61467;50.674;4.618;2023-10-19T10:53:53;17.65;77.19
72650;SHT31;61467;50.674;4.618;2023-10-19T10:56:22;17.64;77.48
72650;SHT31;61467;50.674;4.618;2023-10-19T10:58:51;17.62;77.42
72650;SHT31;61467;50.674;4.618;2023-10-19T11:01:28;17.62;77.76
72650;SHT31;61467;50.674;4.618;2023-10-19T11:04:05;17.67;77.82
72650;SHT31;61467;50.674;4.618;2023-10-19T11:06:45;17.62;78.39
72650;SHT31;61467;50.674;4.618;2023-10-19T11:09:12;17.61;79.04
72650;SHT31;61467;50.674;4.618;2023-10-19T11:11:43;17.55;78.70
72650;SHT31;61467;50.674;4.618;2023-10-19T11:14:10;17.62;79.06
72650;SHT31;61467;50.674;4.618;2023-10-19T11:16:37;17.67;78.59
72650;SHT31;61467;50.674;4.618;2023-10-19T11:19:05;17.78;77.91
72650;SHT31;61467;50.674;4.618;2023-10-19T11:21:31;17.72;78.15
72650;SHT31;61467;50.674;4.618;2023-10-19T11:24:01;17.85;78.18
72650;SHT31;61467;50.674;4.618;2023-10-19T11:26:31;17.70;78.79
72650;SHT31;61467;50.674;4.618;2023-10-19T11:29:06;17.75;78.29
72650;SHT31;61467;50.674;4.618;2023-10-19T11:31:35;17.72;77.10
72650;SHT31;61467;50.674;4.618;2023-10-19T11:34:05;17.77;76.57
72650;SHT31;61467;50.674;4.618;2023-10-19T11:36:33;17.78;76.78
72650;SHT31;61467;50.674;4.618;2023-10-19T11:39:02;17.65;77.78
72650;SHT31;61467;50.674;4.618;2023-10-19T11:41:29;17.65;77.65
72650;SHT31;61467;50.674;4.618;2023-10-19T11:43:57;17.72;77.47
72650;SHT31;61467;50.674;4.618;2023-10-19T11:46:24;17.74;76.54
72650;SHT31;61467;50.674;4.618;2023-10-19T11:48:51;17.77;76.20
72650;SHT31;61467;50.674;4.618;2023-10-19T11:51:18;17.60;78.69
72650;SHT31;61467;50.674;4.618;2023-10-19T11:53:44;17.57;77.03
72650;SHT31;61467;50.674;4.618;2023-10-19T11:56:13;17.61;77.98
72650;SHT31;61467;50.674;4.618;2023-10-19T11:58:41;17.57;77.88
72650;SHT31;61467;50.674;4.618;2023-10-19T12:01:10;17.47;79.58
72650;SHT31;61467;50.674;4.618;2023-10-19T12:03:38;17.47;77.81
72650;SHT31;61467;50.674;4.618;2023-10-19T12:06:06;17.51;77.46
72650;SHT31;61467;50.674;4.618;2023-10-19T12:08:33;17.38;77.72
72650;SHT31;61467;50.674;4.618;2023-10-19T12:11:01;17.27;78.43
72650;SHT31;61467;50.674;4.618;2023-10-19T12:13:30;17.35;77.37
72650;SHT31;61467;50.674;4.618;2023-10-19T12:15:58;17.31;79.18
72650;SHT31;61467;50.674;4.618;2023-10-19T12:18:25;17.37;78.92
72650;SHT31;61467;50.674;4.618;2023-10-19T12:20:54;17.28;79.55
72650;SHT31;61467;50.674;4.618;2023-10-19T12:23:22;17.34;79.31
72650;SHT31;61467;50.674;4.618;2023-10-19T12:25:50;17.24;79.81
72650;SHT31;61467;50.674;4.618;2023-10-19T12:28:17;17.12;79.72
72650;SHT31;61467;50.674;4.618;2023-10-19T12:30:45;17.31;79.77
72650;SHT31;61467;50.674;4.618;2023-10-19T12:33:12;17.45;79.44
72650;SHT31;61467;50.674;4.618;2023-10-19T12:35:40;17.48;80.14
72650;SHT31;61467;50.674;4.618;2023-10-19T12:38:19;17.62;78.86
72650;SHT31;61467;50.674;4.618;2023-10-19T12:40:47;17.64;80.09
72650;SHT31;61467;50.674;4.618;2023-10-19T12:43:16;17.85;80.03
72650;SHT31;61467;50.674;4.618;2023-10-19T12:45:45;17.83;80.32
72650;SHT31;61467;50.674;4.618;2023-10-19T12:48:16;17.79;81.43
72650;SHT31;61467;50.674;4.618;2023-10-19T12:50:43;18.03;81.09
72650;SHT31;61467;50.674;4.618;2023-10-19T12:53:11;18.28;81.03
72650;SHT31;61467;50.674;4.618;2023-10-19T12:55:39;18.46;78.90
72650;SHT31;61467;50.674;4.618;2023-10-19T12:58:08;18.60;77.81
72650;SHT31;61467;50.674;4.618;2023-10-19T13:00:45;18.83;78.42
72650;SHT31;61467;50.674;4.618;2023-10-19T13:03:31;18.61;78.05
72650;SHT31;61467;50.674;4.618;2023-10-19T13:06:01;18.91;77.47
72650;SHT31;61467;50.674;4.618;2023-10-19T13:08:34;19.04;76.59
72650;SHT31;61467;50.674;4.618;2023-10-19T13:11:03;19.18;76.95
72650;SHT31;61467;50.674;4.618;2023-10-19T13:13:30;19.18;74.85
72650;SHT31;61467;50.674;4.618;2023-10-19T13:15:57;19.31;74.13
72650;SHT31;61467;50.674;4.618;2023-10-19T13:18:25;19.38;74.70
72650;SHT31;61467;50.674;4.618;2023-10-19T13:20:54;18.95;75.95
72650;SHT31;61467;50.674;4.618;2023-10-19T13:23:24;19.14;75.60
72650;SHT31;61467;50.674;4.618;2023-10-19T13:25:51;19.23;76.00
72650;SHT31;61467;50.674;4.618;2023-10-19T13:28:21;19.22;74.56
72650;SHT31;61467;50.674;4.618;2023-10-19T13:30:49;19.25;75.01
72650;SHT31;61467;50.674;4.618;2023-10-19T13:33:17;19.29;73.51
72650;SHT31;61467;50.674;4.618;2023-10-19T13:35:45;19.22;74.90
72650;SHT31;61467;50.674;4.618;2023-10-19T13:38:16;19.18;73.19
72650;SHT31;61467;50.674;4.618;2023-10-19T13:40:43;19.21;73.53
72650;SHT31;61467;50.674;4.618;2023-10-19T13:43:13;19.00;74.77
72650;SHT31;61467;50.674;4.618;2023-10-19T13:45:41;18.88;74.88
72650;SHT31;61467;50.674;4.618;2023-10-19T13:48:09;19.00;75.73
72650;SHT31;61467;50.674;4.618;2023-10-19T13:50:41;18.97;75.50
72650;SHT31;61467;50.674;4.618;2023-10-19T13:53:09;18.90;75.60
72650;SHT31;61467;50.674;4.618;2023-10-19T13:55:37;18.95;74.76
72650;SHT31;61467;50.674;4.618;2023-10-19T13:58:04;18.78;74.76
72650;SHT31;61467;50.674;4.618;2023-10-19T14:00:32;18.59;76.00
72650;SHT31;61467;50.674;4.618;2023-10-19T14:03:06;18.53;76.74
72650;SHT31;61467;50.674;4.618;2023-10-19T14:05:36;18.60;76.18
72650;SHT31;61467;50.674;4.618;2023-10-19T14:08:04;18.61;77.05
72650;SHT31;61467;50.674;4.618;2023-10-19T14:10:31;18.75;76.14
72650;SHT31;61467;50.674;4.618;2023-10-19T14:12:59;18.61;77.03
72650;SHT31;61467;50.674;4.618;2023-10-19T14:15:26;18.78;74.12
72650;SHT31;61467;50.674;4.618;2023-10-19T14:17:55;18.85;74.71
72650;SHT31;61467;50.674;4.618;2023-10-19T14:20:24;18.81;74.20
72650;SHT31;61467;50.674;4.618;2023-10-19T14:22:51;18.61;76.09
72650;SHT31;61467;50.674;4.618;2023-10-19T14:25:20;18.77;75.18
72650;SHT31;61467;50.674;4.618;2023-10-19T14:27:49;18.77;75.62
72650;SHT31;61467;50.674;4.618;2023-10-19T14:30:22;18.80;74.60
72650;SHT31;61467;50.674;4.618;2023-10-19T14:32:49;18.78;75.58
72650;SHT31;61467;50.674;4.618;2023-10-19T14:35:18;18.78;75.85
72650;SHT31;61467;50.674;4.618;2023-10-19T14:37:46;18.68;75.37
72650;SHT31;61467;50.674;4.618;2023-10-19T14:40:15;18.71;76.27
72650;SHT31;61467;50.674;4.618;2023-10-19T14:42:43;18.75;75.98
72650;SHT31;61467;50.674;4.618;2023-10-19T14:45:11;18.67;76.18
72650;SHT31;61467;50.674;4.618;2023-10-19T14:47:41;18.68;76.26
72650;SHT31;61467;50.674;4.618;2023-10-19T14:50:10;18.61;76.65
72650;SHT31;61467;50.674;4.618;2023-10-19T14:52:40;18.74;75.78
72650;SHT31;61467;50.674;4.618;2023-10-19T14:55:07;18.74;76.34
72650;SHT31;61467;50.674;4.618;2023-10-19T14:57:35;18.78;76.30
72650;SHT31;61467;50.674;4.618;2023-10-19T15:00:04;18.84;76.35
72650;SHT31;61467;50.674;4.618;2023-10-19T15:02:41;18.83;75.21
72650;SHT31;61467;50.674;4.618;2023-10-19T15:05:10;18.83;74.10
72650;SHT31;61467;50.674;4.618;2023-10-19T15:07:40;18.75;75.13
72650;SHT31;61467;50.674;4.618;2023-10-19T15:10:09;18.78;74.53
72650;SHT31;61467;50.674;4.618;2023-10-19T15:12:38;19.01;74.10
72650;SHT31;61467;50.674;4.618;2023-10-19T15:15:05;18.98;73.33
72650;SHT31;61467;50.674;4.618;2023-10-19T15:17:33;19.01;73.95
72650;SHT31;61467;50.674;4.618;2023-10-19T15:20:05;18.88;74.13
72650;SHT31;61467;50.674;4.618;2023-10-19T15:22:33;18.84;73.92
72650;SHT31;61467;50.674;4.618;2023-10-19T15:24:59;18.78;74.09
72650;SHT31;61467;50.674;4.618;2023-10-19T15:27:26;18.84;74.35
72650;SHT31;61467;50.674;4.618;2023-10-19T15:29:55;18.92;72.76
72650;SHT31;61467;50.674;4.618;2023-10-19T15:32:22;18.98;73.21
72650;SHT31;61467;50.674;4.618;2023-10-19T15:34:50;18.95;73.70
72650;SHT31;61467;50.674;4.618;2023-10-19T15:37:18;18.91;73.16
72650;SHT31;61467;50.674;4.618;2023-10-19T15:39:45;19.02;72.75
72650;SHT31;61467;50.674;4.618;2023-10-19T15:42:12;18.98;72.14
72650;SHT31;61467;50.674;4.618;2023-10-19T15:44:39;19.11;72.54